createdAt,value
2022-12-20T00:01:40.266Z,4.95
2022-12-20T00:04:13.451Z,4.67
2022-12-20T00:06:46.150Z,5.95
2022-12-20T00:09:18.894Z,5.95
2022-12-20T00:11:51.801Z,5.42
2022-12-20T00:14:25.097Z,6.42
2022-12-20T00:16:57.823Z,5.37
2022-12-20T00:19:30.429Z,5.35
2022-12-20T00:22:03.364Z,5.72
2022-12-20T00:24:36.351Z,5.20
2022-12-20T00:27:09.339Z,5.40
2022-12-20T00:29:41.916Z,5.75
2022-12-20T00:32:14.573Z,5.80
2022-12-20T00:34:47.192Z,5.55
2022-12-20T00:37:19.912Z,5.45
2022-12-20T00:39:52.585Z,6.42
2022-12-20T00:42:26.271Z,5.33
2022-12-20T00:44:59.217Z,5.75
2022-12-20T00:47:32.458Z,5.05
2022-12-20T00:50:05.432Z,6.03
2022-12-20T00:52:38.187Z,5.60
2022-12-20T00:55:11.218Z,5.92
2022-12-20T00:57:43.943Z,6.37
2022-12-20T01:00:17.993Z,6.12
2022-12-20T01:02:51.848Z,5.83
2022-12-20T01:05:24.773Z,7.33
2022-12-20T01:07:57.913Z,6.08
2022-12-20T01:10:30.591Z,7.17
2022-12-20T01:13:04.239Z,6.53
2022-12-20T01:15:37.893Z,5.42
2022-12-20T01:18:10.681Z,7.42
2022-12-20T01:20:43.942Z,6.60
2022-12-20T01:23:16.830Z,6.42
2022-12-20T01:25:52.604Z,6.35
2022-12-20T01:28:25.403Z,6.05
2022-12-20T01:30:58.466Z,8.18
2022-12-20T01:33:31.278Z,6.80
2022-12-20T01:36:07.620Z,6.55
2022-12-20T01:38:40.876Z,6.62
2022-12-20T01:41:19.784Z,6.58
2022-12-20T01:44:01.601Z,7.67
2022-12-20T01:46:37.433Z,6.75
2022-12-20T01:49:23.325Z,6.85
2022-12-20T01:52:00.216Z,6.25
2022-12-20T01:54:47.345Z,6.65
2022-12-20T01:57:45.502Z,7.53
2022-12-20T02:00:19.239Z,6.80
2022-12-20T02:02:52.951Z,6.40
2022-12-20T02:05:26.071Z,7.08
2022-12-20T02:07:59.680Z,7.30
2022-12-20T02:10:49.036Z,6.97
2022-12-20T02:13:36.384Z,7.37
2022-12-20T02:16:09.218Z,7.10
2022-12-20T02:18:53.581Z,7.28
2022-12-20T02:21:36.455Z,7.05
2022-12-20T02:24:51.138Z,6.70
2022-12-20T02:27:46.976Z,7.53
2022-12-20T02:30:22.789Z,8.38
2022-12-20T02:33:05.552Z,8.60
2022-12-20T02:35:40.620Z,6.10
2022-12-20T02:38:33.522Z,8.00
2022-12-20T02:41:20.451Z,6.72
2022-12-20T02:44:15.974Z,7.55
2022-12-20T02:46:49.598Z,7.05
2022-12-20T02:49:25.519Z,7.37
2022-12-20T02:51:59.349Z,8.55
2022-12-20T02:54:32.583Z,8.00
2022-12-20T02:57:15.918Z,8.80
2022-12-20T03:00:11.804Z,7.17
2022-12-20T03:03:05.031Z,7.97
2022-12-20T03:05:42.765Z,8.68
2022-12-20T03:08:15.938Z,7.53
2022-12-20T03:10:49.126Z,7.33
2022-12-20T03:13:23.334Z,8.65
2022-12-20T03:16:07.094Z,8.58
2022-12-20T03:18:40.951Z,7.72
2022-12-20T03:21:14.227Z,8.53
2022-12-20T03:23:47.345Z,7.42
2022-12-20T03:26:20.014Z,8.33
2022-12-20T03:28:54.341Z,8.88
2022-12-20T03:31:28.582Z,8.35
2022-12-20T03:34:01.322Z,8.23
2022-12-20T03:36:34.911Z,7.67
2022-12-20T03:39:08.860Z,7.53
2022-12-20T03:41:43.718Z,8.90
2022-12-20T03:44:17.851Z,8.80
2022-12-20T03:46:50.703Z,7.47
2022-12-20T03:49:23.395Z,7.92
2022-12-20T03:51:56.691Z,9.08
2022-12-20T03:54:29.518Z,9.00
2022-12-20T03:57:07.351Z,9.15
2022-12-20T03:59:40.108Z,9.33
2022-12-20T04:04:46.759Z,8.40
2022-12-20T04:07:19.854Z,8.85
2022-12-20T04:09:52.616Z,10.03
2022-12-20T04:12:25.429Z,9.15
2022-12-20T04:14:58.183Z,11.43
2022-12-20T04:17:33.293Z,9.10
2022-12-20T04:20:09.666Z,8.33
2022-12-20T04:22:42.737Z,9.03
2022-12-20T04:25:17.143Z,9.70
2022-12-20T04:27:49.981Z,10.28
2022-12-20T04:30:22.941Z,10.32
2022-12-20T04:32:56.652Z,10.63
2022-12-20T04:35:30.694Z,9.63
2022-12-20T04:38:03.923Z,8.47
2022-12-20T04:40:37.203Z,8.95
2022-12-20T04:43:11.733Z,8.58
2022-12-20T04:45:45.211Z,9.40
2022-12-20T04:48:54.665Z,7.78
2022-12-20T04:50:54.025Z,8.85
2022-12-20T04:53:37.317Z,8.28
2022-12-20T04:56:10.865Z,8.83
2022-12-20T04:58:43.997Z,8.73
2022-12-20T05:01:17.207Z,9.33
2022-12-20T05:03:51.929Z,9.55
2022-12-20T05:06:25.336Z,8.93
2022-12-20T05:08:58.095Z,9.80
2022-12-20T05:11:31.623Z,9.08
2022-12-20T05:14:04.603Z,9.47
2022-12-20T05:16:38.058Z,11.40
2022-12-20T05:19:11.235Z,12.55
2022-12-20T05:22:02.838Z,12.03
2022-12-20T05:24:54.439Z,11.22
2022-12-20T05:27:34.865Z,11.45
2022-12-20T05:30:10.025Z,11.83
2022-12-20T05:32:43.050Z,11.35
2022-12-20T05:37:50.032Z,9.25
2022-12-20T05:40:24.104Z,11.05
2022-12-20T05:42:57.123Z,9.75
2022-12-20T05:45:31.605Z,10.00
2022-12-20T05:48:07.171Z,9.35
2022-12-20T05:50:41.347Z,11.00
2022-12-20T05:53:27.840Z,7.95
2022-12-20T05:56:03.384Z,10.45
2022-12-20T05:58:39.092Z,11.15
2022-12-20T06:01:12.552Z,10.60
2022-12-20T06:03:46.124Z,10.28
2022-12-20T06:06:20.796Z,9.58
2022-12-20T06:08:56.369Z,10.72
2022-12-20T06:11:30.844Z,10.72
2022-12-20T06:14:07.948Z,13.18
2022-12-20T06:16:42.521Z,9.30
2022-12-20T06:21:50.756Z,10.25
2022-12-20T06:24:27.020Z,9.40
2022-12-20T06:26:59.875Z,10.53
2022-12-20T06:29:34.501Z,12.70
2022-12-20T06:32:09.050Z,11.28
2022-12-20T06:34:43.257Z,11.70
2022-12-20T06:37:16.765Z,10.40
2022-12-20T06:39:50.009Z,8.95
2022-12-20T06:42:22.986Z,10.58
2022-12-20T06:44:56.019Z,11.70
2022-12-20T06:47:28.789Z,9.53
2022-12-20T06:50:02.167Z,10.23
2022-12-20T06:52:35.015Z,10.50
2022-12-20T06:55:08.007Z,10.18
2022-12-20T06:57:43.395Z,11.65
2022-12-20T07:00:17.558Z,10.70
2022-12-20T07:02:50.477Z,10.60
2022-12-20T07:05:23.527Z,10.07
2022-12-20T07:07:57.056Z,11.40
2022-12-20T07:10:30.120Z,12.45
2022-12-20T07:13:03.450Z,11.93
2022-12-20T07:15:36.056Z,11.43
2022-12-20T07:18:09.750Z,12.98
2022-12-20T07:20:42.554Z,12.05
2022-12-20T07:23:15.790Z,12.37
2022-12-20T07:25:56.920Z,13.10
2022-12-20T07:28:30.969Z,12.43
2022-12-20T07:31:05.139Z,11.93
2022-12-20T07:33:39.691Z,11.63
2022-12-20T07:36:14.580Z,12.07
2022-12-20T07:38:47.671Z,11.40
2022-12-20T07:41:21.015Z,11.20
2022-12-20T07:43:53.919Z,11.17
2022-12-20T07:46:27.236Z,11.83
2022-12-20T07:49:01.179Z,10.93
2022-12-20T07:51:50.060Z,15.15
2022-12-20T07:54:32.437Z,11.30
2022-12-20T07:57:10.255Z,10.30
2022-12-20T07:59:46.638Z,9.63
2022-12-20T08:02:24.012Z,11.65
2022-12-20T08:04:57.853Z,10.48
2022-12-20T08:07:31.511Z,9.98
2022-12-20T08:10:05.624Z,9.85
2022-12-20T08:12:39.043Z,10.25
2022-12-20T08:15:12.583Z,9.95
2022-12-20T08:17:45.389Z,9.50
2022-12-20T08:20:19.968Z,9.03
2022-12-20T08:25:25.972Z,8.23
2022-12-20T08:28:00.324Z,9.50
2022-12-20T08:30:33.405Z,11.03
2022-12-20T08:33:06.663Z,10.82
2022-12-20T08:35:39.752Z,10.20
2022-12-20T08:38:12.449Z,8.73
2022-12-20T08:40:45.146Z,11.57
2022-12-20T08:43:17.877Z,11.12
2022-12-20T08:45:59.979Z,12.63
2022-12-20T08:48:32.914Z,12.40
2022-12-20T08:51:09.612Z,11.93
2022-12-20T08:53:42.653Z,11.38
2022-12-20T08:56:18.446Z,10.85
2022-12-20T08:58:51.650Z,12.63
2022-12-20T09:01:27.092Z,10.68
2022-12-20T09:04:00.852Z,10.78
2022-12-20T09:06:36.205Z,11.03
2022-12-20T09:09:09.191Z,10.70
2022-12-20T09:11:42.488Z,11.30
2022-12-20T09:14:15.475Z,11.97
2022-12-20T09:16:48.384Z,10.83
2022-12-20T09:19:21.331Z,11.05
2022-12-20T09:21:55.725Z,12.90
2022-12-20T09:24:29.043Z,12.80
2022-12-20T09:27:02.389Z,12.28
2022-12-20T09:29:36.256Z,11.68
2022-12-20T09:32:09.146Z,11.12
2022-12-20T09:34:41.966Z,13.15
2022-12-20T09:37:14.637Z,10.95
2022-12-20T09:39:49.171Z,10.60
2022-12-20T09:42:25.920Z,10.98
2022-12-20T09:45:09.187Z,10.43
2022-12-20T09:47:42.485Z,9.58
2022-12-20T09:50:17.628Z,7.47
2022-12-20T09:52:55.154Z,8.55
2022-12-20T09:55:44.730Z,8.50
2022-12-20T09:58:40.066Z,7.75
2022-12-20T10:01:23.009Z,8.30
2022-12-20T10:03:53.514Z,8.18
2022-12-20T10:06:45.543Z,7.33
2022-12-20T10:09:45.191Z,8.90
2022-12-20T10:12:34.630Z,8.60
2022-12-20T10:15:41.750Z,9.83
2022-12-20T10:18:46.572Z,9.35
2022-12-20T10:21:38.563Z,9.45
2022-12-20T10:24:33.071Z,7.50
2022-12-20T10:29:52.031Z,9.23
2022-12-20T10:32:29.308Z,8.67
2022-12-20T10:35:33.890Z,10.08
2022-12-20T10:38:16.930Z,13.40
2022-12-20T10:41:22.559Z,12.07
2022-12-20T10:44:01.294Z,11.78
2022-12-20T10:46:55.925Z,12.00
2022-12-20T10:49:38.281Z,11.35
2022-12-20T10:52:15.745Z,10.25
2022-12-20T10:54:49.170Z,11.70
2022-12-20T10:57:33.730Z,10.90
2022-12-20T11:00:09.412Z,10.90
2022-12-20T11:02:43.986Z,10.30
2022-12-20T11:05:24.340Z,10.98
2022-12-20T11:08:39.278Z,10.80
2022-12-20T11:10:55.267Z,12.60
2022-12-20T11:13:29.701Z,10.58
2022-12-20T11:16:02.732Z,10.88
2022-12-20T11:18:54.575Z,12.83
2022-12-20T11:21:54.953Z,11.75
2022-12-20T11:24:56.205Z,12.23
2022-12-20T11:27:45.268Z,11.30
2022-12-20T11:30:21.732Z,11.50
2022-12-20T11:33:20.413Z,13.62
2022-12-20T11:36:01.185Z,14.10
2022-12-20T11:38:53.415Z,12.65
2022-12-20T11:41:40.114Z,14.50
2022-12-20T11:44:50.114Z,15.03
2022-12-20T11:48:02.633Z,14.13
2022-12-20T11:50:52.270Z,13.20
2022-12-20T11:53:35.642Z,13.45
2022-12-20T11:56:16.160Z,12.75
2022-12-20T11:58:52.778Z,14.33
2022-12-20T12:01:39.199Z,14.18
2022-12-20T12:04:22.073Z,12.75
2022-12-20T12:06:59.951Z,12.45
2022-12-20T12:09:55.600Z,12.05
2022-12-20T12:12:41.348Z,10.35
2022-12-20T12:15:40.070Z,11.20
2022-12-20T12:18:20.378Z,10.13
2022-12-20T12:21:26.308Z,11.33
2022-12-20T12:24:18.465Z,11.80
2022-12-20T12:26:51.205Z,12.93
2022-12-20T12:29:24.668Z,13.13
2022-12-20T12:32:22.052Z,12.53
2022-12-20T12:35:22.170Z,15.70
2022-12-20T12:38:08.543Z,16.20
2022-12-20T12:41:03.343Z,15.10
2022-12-20T12:46:29.544Z,14.03
2022-12-20T12:49:21.920Z,15.72
2022-12-20T12:52:01.717Z,15.85
2022-12-20T12:54:40.765Z,15.63
2022-12-20T12:57:17.532Z,17.35
2022-12-20T12:59:52.724Z,17.65
2022-12-20T13:02:29.269Z,17.80
2022-12-20T13:05:19.424Z,16.20
2022-12-20T13:07:51.244Z,14.38
2022-12-20T13:10:29.845Z,15.80
2022-12-20T13:13:04.382Z,13.35
2022-12-20T13:18:24.711Z,15.13
2022-12-20T13:21:21.973Z,15.88
2022-12-20T13:24:18.640Z,16.32
2022-12-20T13:26:55.853Z,17.57
2022-12-20T13:29:35.182Z,18.15
2022-12-20T13:32:30.281Z,19.37
2022-12-20T13:35:03.114Z,19.00
2022-12-20T13:37:59.433Z,18.57
2022-12-20T13:40:45.909Z,17.90
2022-12-20T13:43:26.430Z,19.20
2022-12-20T13:46:18.372Z,19.27
2022-12-20T13:49:02.423Z,19.82
2022-12-20T13:51:35.302Z,22.07
2022-12-20T13:54:12.841Z,19.30
2022-12-20T13:56:49.798Z,21.10
2022-12-20T13:59:27.351Z,20.80
2022-12-20T14:02:07.161Z,21.93
2022-12-20T14:04:46.227Z,20.97
2022-12-20T14:07:20.394Z,20.65
2022-12-20T14:10:01.071Z,22.20
2022-12-20T14:12:37.043Z,23.70
2022-12-20T14:15:22.470Z,22.77
2022-12-20T14:17:56.019Z,21.87
2022-12-20T14:23:12.530Z,20.27
2022-12-20T14:25:52.645Z,22.00
2022-12-20T14:28:32.639Z,22.17
2022-12-20T14:31:08.749Z,21.42
2022-12-20T14:33:43.223Z,22.42
2022-12-20T14:36:22.305Z,23.50
2022-12-20T14:38:55.175Z,26.75
2022-12-20T14:41:40.845Z,26.00
2022-12-20T14:44:19.186Z,24.00
2022-12-20T14:46:59.033Z,24.75
2022-12-20T14:49:34.655Z,22.90
2022-12-20T14:52:22.876Z,23.32
2022-12-20T14:55:08.242Z,22.62
2022-12-20T14:57:42.134Z,25.10
2022-12-20T15:00:25.086Z,25.12
2022-12-20T15:03:13.883Z,23.38
2022-12-20T15:05:58.652Z,22.05
2022-12-20T15:08:33.363Z,23.07
2022-12-20T15:11:13.807Z,22.45
2022-12-20T15:13:50.403Z,34.03
2022-12-20T15:16:30.117Z,44.15
2022-12-20T15:19:05.142Z,37.30
2022-12-20T15:21:43.145Z,51.08
2022-12-20T15:24:23.688Z,38.88
2022-12-20T15:26:57.280Z,36.08
2022-12-20T15:29:30.915Z,51.63
2022-12-20T15:32:17.389Z,60.73
2022-12-20T15:34:50.096Z,53.95
2022-12-20T15:37:22.944Z,80.28
2022-12-20T15:39:55.662Z,104.87
2022-12-20T15:42:28.385Z,126.58
2022-12-20T15:45:01.081Z,131.60
2022-12-20T15:47:34.184Z,82.77
2022-12-20T15:50:08.753Z,66.17
2022-12-20T15:52:41.719Z,66.15
2022-12-20T15:55:14.485Z,56.83
2022-12-20T15:57:47.553Z,57.78
2022-12-20T19:02:56.804Z,78.80
2022-12-20T19:18:37.610Z,54.42
2022-12-20T19:21:27.008Z,60.75
2022-12-20T19:24:05.316Z,52.05
2022-12-20T19:26:39.951Z,63.48
2022-12-20T19:29:12.667Z,75.52
2022-12-20T19:31:45.622Z,101.25
2022-12-20T19:34:18.978Z,82.80
2022-12-20T19:36:53.060Z,76.60
2022-12-20T19:39:25.859Z,105.60
2022-12-20T19:44:34.413Z,67.42
2022-12-20T19:47:07.572Z,64.92
2022-12-20T19:49:40.559Z,62.73
2022-12-20T19:52:13.294Z,55.38
2022-12-20T19:54:46.231Z,69.60
2022-12-20T19:57:18.962Z,82.82
2022-12-20T19:59:56.045Z,102.15
2022-12-20T20:02:27.664Z,124.42
2022-12-20T20:05:00.818Z,127.13
2022-12-20T20:07:34.004Z,121.97
2022-12-20T20:10:08.535Z,128.65
2022-12-20T20:12:42.171Z,135.00
2022-12-20T20:15:15.027Z,134.37
2022-12-20T20:17:47.676Z,133.00
2022-12-20T20:20:21.003Z,136.32
2022-12-20T20:22:53.868Z,127.78
2022-12-20T20:25:26.645Z,94.55
2022-12-20T20:27:59.437Z,91.30
2022-12-20T20:30:32.404Z,87.57
2022-12-20T20:33:05.401Z,117.53
2022-12-20T20:35:39.110Z,86.63
2022-12-20T20:38:13.461Z,86.45
2022-12-20T20:40:46.517Z,83.15
2022-12-20T20:43:20.133Z,85.45
2022-12-20T20:45:53.163Z,76.95
2022-12-20T20:48:26.493Z,72.37
2022-12-20T20:51:00.149Z,69.90
2022-12-20T20:53:34.437Z,67.12
2022-12-20T20:56:08.882Z,62.40
2022-12-20T20:58:42.283Z,55.23
2022-12-20T21:01:15.497Z,21.42
2022-12-20T21:03:48.957Z,23.12
2022-12-20T21:08:58.099Z,19.73
2022-12-20T21:11:31.042Z,21.57
2022-12-20T21:14:04.322Z,19.10
2022-12-20T21:16:37.456Z,17.77
2022-12-20T21:19:12.000Z,18.23
2022-12-20T21:21:44.816Z,15.78
2022-12-20T21:24:17.819Z,19.65
2022-12-20T21:26:53.324Z,17.52
2022-12-20T21:29:26.187Z,16.00
2022-12-20T21:31:59.193Z,14.15
2022-12-20T21:34:32.240Z,15.30
2022-12-20T21:37:07.078Z,14.25
2022-12-20T21:39:39.988Z,13.78
2022-12-20T21:42:12.805Z,12.28
2022-12-20T21:44:45.740Z,13.32
2022-12-20T21:47:18.833Z,11.73
2022-12-20T21:49:51.802Z,12.07
2022-12-20T21:52:24.686Z,12.63
2022-12-20T21:54:58.355Z,14.50
2022-12-20T21:57:31.639Z,14.28
2022-12-20T22:00:06.056Z,13.98
2022-12-20T22:02:40.200Z,13.58
2022-12-20T22:05:12.993Z,12.68
2022-12-20T22:07:47.988Z,12.28
2022-12-20T22:10:20.879Z,11.73
2022-12-20T22:12:55.127Z,12.23
2022-12-20T22:15:28.132Z,11.53
2022-12-20T22:18:00.977Z,12.18
2022-12-20T22:20:35.300Z,11.83
2022-12-20T22:23:08.044Z,10.58
2022-12-20T22:25:41.650Z,11.50
2022-12-20T22:28:14.590Z,11.50
2022-12-20T22:30:47.632Z,10.15
2022-12-20T22:33:20.581Z,9.95
2022-12-20T22:35:53.719Z,10.03
2022-12-20T22:38:26.589Z,10.30
2022-12-20T22:41:17.319Z,10.85
2022-12-20T22:43:51.016Z,11.00
2022-12-20T22:46:24.330Z,10.50
2022-12-20T22:48:57.685Z,10.15
2022-12-20T22:51:32.873Z,9.88
2022-12-20T22:54:05.794Z,10.13
2022-12-20T22:56:38.557Z,10.43
2022-12-20T22:59:11.269Z,10.32
2022-12-20T23:01:44.409Z,10.38
2022-12-20T23:04:17.668Z,9.18
2022-12-20T23:06:50.681Z,8.73
2022-12-20T23:09:28.624Z,9.40
2022-12-20T23:12:19.512Z,9.35
2022-12-20T23:15:10.812Z,10.43
2022-12-20T23:17:43.632Z,9.68
2022-12-20T23:20:34.300Z,9.48
2022-12-20T23:23:07.836Z,9.98
2022-12-20T23:25:42.237Z,9.65
2022-12-20T23:28:14.943Z,8.98
2022-12-20T23:30:47.880Z,9.78
2022-12-20T23:33:20.577Z,9.48
2022-12-20T23:36:01.012Z,9.58
2022-12-20T23:38:39.017Z,11.05
2022-12-20T23:41:15.539Z,10.70
2022-12-20T23:43:48.556Z,10.55
2022-12-20T23:46:25.000Z,10.30
2022-12-20T23:49:00.105Z,9.88
2022-12-20T23:51:34.525Z,10.28
2022-12-20T23:54:07.536Z,10.85
2022-12-20T23:56:40.410Z,10.93
2022-12-20T23:59:13.077Z,10.72
